Encinitas, California
Current Conditions -  °F | °C
As of 9:53 PM on Friday 19 Dec 2014 (Local Time) from KCRQ Reporting Station
Clear Clear  
Wind Chill: 55°   Ceiling: Unl
Heat Index: 55°   Visibility: 9mi
Dew Point: 50°   Wind: 0mph
Humidity: 83%   Direction: NA
Pressure: 30.17"   Gusts: NA
Location:  33.05°N, 117.29°W
Report Text: KCRQ 200553Z AUTO 00000KT 9SM CLR 13/10 A3017 RMK AO2 SLP216 T01280100 10161 20122 53004
Loading
Personal Weather Stations






























Interactive Weather Map New forecast layout! Learn more

10-Day Weather Forecast

Advertisements
Track Severe Weather on mobile